Avery, Idaho
Current Conditions -  °F | °C
As of 1:11 AM on Monday 24 Nov 2014 (Local Time) from KMLP Reporting Station
Moderate Fog Moderate Fog  
Wind Chill: 17°   Ceiling: 100
Heat Index: 25°   Visibility: 0.5mi
Dew Point: 22°   Wind: 7mph
Humidity: 88%   Direction: 320°NW
Pressure: 30.06"   Gusts: NA
Location:  47.25°N, 115.81°W
Report Text: KMLP 240911Z AUTO 32006KT 1/2SM FZFG VV001 M04/M06 A3006 RMK AO2 T10391056
Loading
Personal Weather Stations






























Interactive Weather Map New forecast layout! Learn more

10-Day Weather Forecast

Advertisements
Track Severe Weather on mobile